createdAt,value
2019-02-02T00:00:25.494Z,27.20
2019-02-02T00:03:26.994Z,24.13
2019-02-02T00:09:12.891Z,27.17
2019-02-02T00:14:58.467Z,24.17
2019-02-02T00:20:43.970Z,25.70
2019-02-02T00:23:45.605Z,25.87
2019-02-02T00:29:30.427Z,25.80
2019-02-02T00:32:32.839Z,29.43
2019-02-02T00:35:34.547Z,28.90
2019-02-02T00:41:20.344Z,23.73
2019-02-02T00:44:21.642Z,26.13
2019-02-02T00:50:02.259Z,25.20
2019-02-02T00:55:47.943Z,25.97
2019-02-02T01:01:34.578Z,33.23
2019-02-02T01:07:20.556Z,28.57
2019-02-02T01:10:21.100Z,25.87
2019-02-02T01:13:22.474Z,28.70
2019-02-02T01:16:23.078Z,28.63
2019-02-02T01:22:09.275Z,27.90
2019-02-02T01:28:04.840Z,26.47
2019-02-02T01:30:57.927Z,24.33
2019-02-02T01:36:43.502Z,22.70
2019-02-02T01:39:44.668Z,29.60
2019-02-02T01:42:45.675Z,28.50
2019-02-02T01:48:30.548Z,28.60
2019-02-02T01:51:32.124Z,29.10
2019-02-02T01:57:17.869Z,26.30
2019-02-02T02:03:03.517Z,27.53
2019-02-02T02:08:49.250Z,28.67
2019-02-02T02:11:50.480Z,28.73
2019-02-02T02:17:56.903Z,28.73
2019-02-02T02:23:41.851Z,27.73
2019-02-02T02:26:43.174Z,26.27
2019-02-02T02:32:28.623Z,26.40
2019-02-02T02:38:13.122Z,27.97
2019-02-02T02:43:57.954Z,26.40
2019-02-02T02:46:59.160Z,25.83
2019-02-02T02:52:45.182Z,28.23
2019-02-02T02:58:40.972Z,27.13
2019-02-02T03:04:17.267Z,28.67
2019-02-02T03:07:19.563Z,26.03
2019-02-02T03:10:20.918Z,30.70
2019-02-02T03:13:21.522Z,28.40
2019-02-02T03:16:22.032Z,27.40
2019-02-02T03:19:22.519Z,29.23
2019-02-02T03:25:07.630Z,26.87
2019-02-02T03:28:08.498Z,30.70
2019-02-02T03:33:55.036Z,27.47
2019-02-02T03:36:56.179Z,30.57
2019-02-02T03:39:56.875Z,29.73
2019-02-02T03:42:57.380Z,33.55
2019-02-02T03:48:42.834Z,33.03
2019-02-02T03:54:28.457Z,27.27
2019-02-02T04:00:12.905Z,26.43
2019-02-02T04:05:58.357Z,25.47
2019-02-02T04:08:59.051Z,27.87
2019-02-02T04:14:45.048Z,27.53
2019-02-02T04:20:30.555Z,27.63
2019-02-02T04:26:17.184Z,28.40
2019-02-02T04:29:23.579Z,25.57
2019-02-02T04:35:08.663Z,28.97
2019-02-02T04:40:54.459Z,28.17
2019-02-02T04:49:46.206Z,29.77
2019-02-02T04:55:32.817Z,29.33
2019-02-02T05:01:18.817Z,34.50
2019-02-02T05:07:05.397Z,30.43
2019-02-02T05:10:06.591Z,31.30
2019-02-02T05:15:52.235Z,33.60
2019-02-02T05:21:38.834Z,30.90
2019-02-02T05:27:23.940Z,32.67
2019-02-02T05:30:23.555Z,31.03
2019-02-02T05:36:14.160Z,27.57
2019-02-02T05:41:59.769Z,28.37
2019-02-02T05:47:45.381Z,28.97
2019-02-02T05:50:46.703Z,35.20
2019-02-02T05:56:32.387Z,28.73
2019-02-02T06:02:18.155Z,31.77
2019-02-02T06:08:04.010Z,34.10
2019-02-02T06:11:05.465Z,28.93
2019-02-02T06:16:51.243Z,32.73
2019-02-02T06:22:36.818Z,33.97
2019-02-02T06:28:22.864Z,27.57
2019-02-02T06:31:24.275Z,30.83
2019-02-02T06:37:09.990Z,29.00
2019-02-02T06:42:56.491Z,31.43
2019-02-02T06:48:41.937Z,104.60
2019-02-02T06:51:43.090Z,215.43
2019-02-02T06:57:27.646Z,39.10
2019-02-02T07:03:18.906Z,38.43
2019-02-02T07:09:05.232Z,29.07
2019-02-02T07:12:06.718Z,30.93
2019-02-02T07:15:08.215Z,32.70
2019-02-02T07:18:09.207Z,32.30
2019-02-02T07:23:54.403Z,31.63
2019-02-02T07:29:39.975Z,32.43
2019-02-02T07:32:40.527Z,30.20
2019-02-02T07:38:26.100Z,30.53
2019-02-02T07:44:06.937Z,37.27
2019-02-02T07:49:51.746Z,32.17
2019-02-02T07:52:52.260Z,31.40
2019-02-02T07:58:38.115Z,33.80
2019-02-02T08:04:23.794Z,31.10
2019-02-02T08:07:26.319Z,33.53
2019-02-02T08:10:27.190Z,35.27
2019-02-02T08:13:27.719Z,31.70
2019-02-02T08:19:13.283Z,29.87
2019-02-02T08:24:59.099Z,33.13
2019-02-02T08:30:52.007Z,33.03
2019-02-02T08:33:47.458Z,35.60
2019-02-02T08:39:33.114Z,34.07
2019-02-02T08:45:18.520Z,35.73
2019-02-02T08:51:03.096Z,37.40
2019-02-02T08:54:04.443Z,35.77
2019-02-02T08:59:50.052Z,31.77
2019-02-02T09:05:34.688Z,35.80
2019-02-02T09:11:21.260Z,35.13
2019-02-02T09:14:22.538Z,37.40
2019-02-02T09:20:07.976Z,40.00
2019-02-02T09:25:52.814Z,33.03
2019-02-02T09:31:38.391Z,36.27
2019-02-02T09:37:23.119Z,40.80
2019-02-02T09:40:25.685Z,39.17
2019-02-02T09:46:11.218Z,36.73
2019-02-02T09:51:56.914Z,36.80
2019-02-02T09:57:42.791Z,38.93
2019-02-02T10:00:43.410Z,38.93
2019-02-02T10:06:28.624Z,36.13
2019-02-02T10:12:13.628Z,37.00
2019-02-02T10:15:15.134Z,34.67
2019-02-02T10:18:16.095Z,38.00
2019-02-02T10:21:17.499Z,36.87
2019-02-02T10:27:03.254Z,38.07
2019-02-02T10:32:48.919Z,40.20
2019-02-02T10:38:34.394Z,35.73
2019-02-02T10:41:35.663Z,36.07
2019-02-02T10:47:21.211Z,41.60
2019-02-02T10:53:07.591Z,37.23
2019-02-02T10:58:53.742Z,36.57
2019-02-02T11:01:55.238Z,39.90
2019-02-02T11:07:41.202Z,37.47
2019-02-02T11:13:26.649Z,41.27
2019-02-02T11:19:13.117Z,41.77
2019-02-02T11:22:14.716Z,44.43
2019-02-02T11:28:01.589Z,36.77
2019-02-02T11:33:46.979Z,39.27
2019-02-02T11:39:32.879Z,42.00
2019-02-02T11:42:33.979Z,44.93
2019-02-02T11:48:19.692Z,45.70
2019-02-02T11:54:04.947Z,46.87
2019-02-02T11:59:50.255Z,40.57
2019-02-02T12:02:51.689Z,45.40
2019-02-02T12:08:37.182Z,41.30
2019-02-02T12:14:23.594Z,42.80
2019-02-02T12:20:09.317Z,44.13
2019-02-02T12:23:10.590Z,42.10
2019-02-02T12:28:50.644Z,46.57
2019-02-02T12:34:35.638Z,44.33
2019-02-02T12:40:20.483Z,47.30
2019-02-02T12:46:25.489Z,47.27
2019-02-02T12:49:26.206Z,52.83
2019-02-02T12:55:17.577Z,46.80
2019-02-02T13:04:14.903Z,46.97
2019-02-02T13:10:00.591Z,46.50
2019-02-02T13:15:46.999Z,52.40
2019-02-02T13:18:50.754Z,46.67
2019-02-02T13:24:36.784Z,48.20
2019-02-02T13:30:21.439Z,46.27
2019-02-02T13:36:08.053Z,48.57
2019-02-02T13:41:52.819Z,48.13
2019-02-02T13:44:54.014Z,47.53
2019-02-02T13:47:55.250Z,49.93
2019-02-02T13:50:56.130Z,50.37
2019-02-02T13:56:40.987Z,51.03
2019-02-02T13:59:42.336Z,51.23
2019-02-02T14:02:45.932Z,53.50
2019-02-02T14:05:46.309Z,46.83
2019-02-02T14:11:26.951Z,48.27
2019-02-02T14:17:11.887Z,51.20
2019-02-02T14:22:56.682Z,51.83
2019-02-02T14:25:57.347Z,52.00
2019-02-02T14:31:42.302Z,52.30
2019-02-02T14:34:43.470Z,52.07
2019-02-02T14:37:44.495Z,49.33
2019-02-02T14:43:30.734Z,48.10
2019-02-02T14:46:31.943Z,51.77
2019-02-02T14:52:17.530Z,50.27
2019-02-02T14:57:58.050Z,49.53
2019-02-02T15:06:50.094Z,49.90
2019-02-02T15:12:37.027Z,57.07
2019-02-02T15:18:22.297Z,55.70
2019-02-02T15:24:08.335Z,53.13
2019-02-02T15:29:54.688Z,59.10
2019-02-02T15:32:55.996Z,55.60
2019-02-02T15:36:03.282Z,51.20
2019-02-02T15:39:04.646Z,59.77
2019-02-02T15:44:49.479Z,61.43
2019-02-02T15:50:35.627Z,59.30
2019-02-02T15:53:36.889Z,58.00
2019-02-02T15:59:22.616Z,61.57
2019-02-02T16:05:07.560Z,62.80
2019-02-02T16:10:52.208Z,58.03
2019-02-02T16:16:36.911Z,60.57
2019-02-02T16:22:21.499Z,63.40
2019-02-02T16:25:22.725Z,75.03
2019-02-02T16:31:07.633Z,65.97
2019-02-02T16:36:52.338Z,58.13
2019-02-02T16:42:57.186Z,60.17
2019-02-02T16:49:11.612Z,57.20
2019-02-02T16:58:49.350Z,56.90
2019-02-02T17:01:49.890Z,63.60
2019-02-02T17:07:34.687Z,65.00
2019-02-02T17:13:20.244Z,63.50
2019-02-02T17:16:21.496Z,64.90
2019-02-02T17:22:06.423Z,63.30
2019-02-02T17:27:51.675Z,63.10
2019-02-02T17:30:52.694Z,65.47
2019-02-02T17:33:53.706Z,61.37
2019-02-02T17:36:54.926Z,81.63
2019-02-02T17:42:43.412Z,68.07
2019-02-02T17:48:28.431Z,66.37
2019-02-02T17:54:13.700Z,67.30
2019-02-02T17:57:15.028Z,63.27
2019-02-02T18:00:15.855Z,64.27
2019-02-02T18:03:17.347Z,59.67
2019-02-02T18:09:03.059Z,63.67
2019-02-02T18:14:53.048Z,59.97
2019-02-02T18:21:09.846Z,53.97
2019-02-02T18:24:10.338Z,62.77
2019-02-02T18:29:56.027Z,56.30
2019-02-02T18:34:18.122Z,63.07
2019-02-02T18:37:19.138Z,65.07
2019-02-02T18:40:19.793Z,59.07
2019-02-02T18:46:09.911Z,62.67
2019-02-02T18:49:11.493Z,57.00
2019-02-02T18:55:01.199Z,57.67
2019-02-02T18:58:54.814Z,62.53
2019-02-02T19:04:41.080Z,66.43
2019-02-02T19:10:26.837Z,64.60
2019-02-02T19:16:13.316Z,58.70
2019-02-02T19:19:14.513Z,58.83
2019-02-02T19:24:59.336Z,61.53
2019-02-02T19:30:46.087Z,60.07
2019-02-02T19:36:32.493Z,63.83
2019-02-02T19:39:33.801Z,64.07
2019-02-02T19:45:18.422Z,66.57
2019-02-02T19:48:19.622Z,63.13
2019-02-02T19:51:21.218Z,68.17
2019-02-02T19:57:07.777Z,70.37
2019-02-02T20:00:08.883Z,68.07
2019-02-02T20:05:54.778Z,70.57
2019-02-02T20:11:40.595Z,70.37
2019-02-02T20:17:25.826Z,68.10
2019-02-02T20:20:27.046Z,73.33
2019-02-02T20:26:11.926Z,70.50
2019-02-02T20:31:57.438Z,73.60
2019-02-02T20:37:43.337Z,70.63
2019-02-02T20:43:29.858Z,71.07
2019-02-02T20:46:31.311Z,73.20
2019-02-02T20:52:16.797Z,73.27
2019-02-02T20:58:02.976Z,69.67
2019-02-02T21:03:48.701Z,76.90
2019-02-02T21:06:49.964Z,73.83
2019-02-02T21:12:35.801Z,79.43
2019-02-02T21:18:21.642Z,73.77
2019-02-02T21:24:08.310Z,74.37
2019-02-02T21:27:09.970Z,76.77
2019-02-02T21:32:55.552Z,78.83
2019-02-02T21:38:40.746Z,75.43
2019-02-02T21:44:26.998Z,77.43
2019-02-02T21:47:27.806Z,74.67
2019-02-02T21:53:14.067Z,72.73
2019-02-02T21:58:59.625Z,79.80
2019-02-02T22:04:45.198Z,72.77
2019-02-02T22:07:47.473Z,68.63
2019-02-02T22:13:33.607Z,69.53
2019-02-02T22:19:19.107Z,69.63
2019-02-02T22:25:05.081Z,69.67
2019-02-02T22:28:06.626Z,70.33
2019-02-02T22:33:57.346Z,76.63
2019-02-02T22:39:43.663Z,68.53
2019-02-02T22:45:29.016Z,75.37
2019-02-02T22:48:29.528Z,69.27
2019-02-02T22:54:14.038Z,70.33
2019-02-02T23:00:00.471Z,62.77
2019-02-02T23:03:02.822Z,67.77
2019-02-02T23:08:49.443Z,70.73
2019-02-02T23:14:34.532Z,77.17
2019-02-02T23:20:19.361Z,76.63
2019-02-02T23:26:05.282Z,82.93
2019-02-02T23:32:12.906Z,77.83
2019-02-02T23:35:13.771Z,81.33
2019-02-02T23:40:58.447Z,81.13
2019-02-02T23:43:59.715Z,82.87
2019-02-02T23:49:45.771Z,86.13
2019-02-02T23:55:30.391Z,90.87
